sensor_id;sensor_type;location;lat;lon;timestamp;temperature;humidity
6256;DHT22;3161;48.794;9.784;2023-11-21T00:00:47;9.40;99.90
6256;DHT22;3161;48.794;9.784;2023-11-21T00:03:14;9.40;99.90
6256;DHT22;3161;48.794;9.784;2023-11-21T00:05:42;9.40;99.90
6256;DHT22;3161;48.794;9.784;2023-11-21T00:08:09;9.40;99.90
6256;DHT22;3161;48.794;9.784;2023-11-21T00:10:38;9.40;99.90
6256;DHT22;3161;48.794;9.784;2023-11-21T00:13:06;9.40;99.90
6256;DHT22;3161;48.794;9.784;2023-11-21T00:15:34;9.40;99.90
6256;DHT22;3161;48.794;9.784;2023-11-21T00:18:01;9.40;99.90
6256;DHT22;3161;48.794;9.784;2023-11-21T00:20:29;9.40;99.90
6256;DHT22;3161;48.794;9.784;2023-11-21T00:22:56;9.30;99.90
6256;DHT22;3161;48.794;9.784;2023-11-21T00:25:24;9.30;99.90
6256;DHT22;3161;48.794;9.784;2023-11-21T00:27:51;9.30;99.90
6256;DHT22;3161;48.794;9.784;2023-11-21T00:30:19;9.20;99.90
6256;DHT22;3161;48.794;9.784;2023-11-21T00:32:48;9.20;99.90
6256;DHT22;3161;48.794;9.784;2023-11-21T00:35:15;9.20;99.90
6256;DHT22;3161;48.794;9.784;2023-11-21T00:37:43;9.30;99.90
6256;DHT22;3161;48.794;9.784;2023-11-21T00:40:11;9.30;99.90
6256;DHT22;3161;48.794;9.784;2023-11-21T00:42:41;9.30;99.90
6256;DHT22;3161;48.794;9.784;2023-11-21T00:45:09;9.20;99.90
6256;DHT22;3161;48.794;9.784;2023-11-21T00:47:37;9.20;99.90
6256;DHT22;3161;48.794;9.784;2023-11-21T00:50:05;9.20;99.90
6256;DHT22;3161;48.794;9.784;2023-11-21T00:52:33;9.20;99.90
6256;DHT22;3161;48.794;9.784;2023-11-21T00:55:01;9.20;99.90
6256;DHT22;3161;48.794;9.784;2023-11-21T00:57:29;9.20;99.90
6256;DHT22;3161;48.794;9.784;2023-11-21T00:59:57;9.20;99.90
6256;DHT22;3161;48.794;9.784;2023-11-21T01:02:24;9.30;99.90
6256;DHT22;3161;48.794;9.784;2023-11-21T01:04:52;9.30;99.90
6256;DHT22;3161;48.794;9.784;2023-11-21T01:07:20;9.30;99.90
6256;DHT22;3161;48.794;9.784;2023-11-21T01:09:47;9.20;99.90
6256;DHT22;3161;48.794;9.784;2023-11-21T01:12:15;9.20;99.90
6256;DHT22;3161;48.794;9.784;2023-11-21T01:14:44;9.20;99.90
6256;DHT22;3161;48.794;9.784;2023-11-21T01:17:12;9.20;99.90
6256;DHT22;3161;48.794;9.784;2023-11-21T01:19:39;9.20;99.90
6256;DHT22;3161;48.794;9.784;2023-11-21T01:22:06;9.20;99.90
6256;DHT22;3161;48.794;9.784;2023-11-21T01:24:35;9.20;99.90
6256;DHT22;3161;48.794;9.784;2023-11-21T01:27:02;9.20;99.90
6256;DHT22;3161;48.794;9.784;2023-11-21T01:29:30;9.20;99.90
6256;DHT22;3161;48.794;9.784;2023-11-21T01:31:58;9.20;99.90
6256;DHT22;3161;48.794;9.784;2023-11-21T01:34:25;9.20;99.90
6256;DHT22;3161;48.794;9.784;2023-11-21T01:36:54;9.20;99.90
6256;DHT22;3161;48.794;9.784;2023-11-21T01:39:21;9.30;99.90
6256;DHT22;3161;48.794;9.784;2023-11-21T01:41:51;9.30;99.90
6256;DHT22;3161;48.794;9.784;2023-11-21T01:44:18;9.30;99.90
6256;DHT22;3161;48.794;9.784;2023-11-21T01:46:46;9.30;99.90
6256;DHT22;3161;48.794;9.784;2023-11-21T01:49:15;9.30;99.90
6256;DHT22;3161;48.794;9.784;2023-11-21T01:51:46;9.30;99.90
6256;DHT22;3161;48.794;9.784;2023-11-21T01:54:17;9.30;99.90
6256;DHT22;3161;48.794;9.784;2023-11-21T01:56:48;9.30;99.90
6256;DHT22;3161;48.794;9.784;2023-11-21T01:59:21;9.30;99.90
6256;DHT22;3161;48.794;9.784;2023-11-21T02:01:49;9.30;99.90
6256;DHT22;3161;48.794;9.784;2023-11-21T02:04:18;9.30;99.90
6256;DHT22;3161;48.794;9.784;2023-11-21T02:06:47;9.30;99.90
6256;DHT22;3161;48.794;9.784;2023-11-21T02:09:17;9.30;99.90
6256;DHT22;3161;48.794;9.784;2023-11-21T02:11:46;9.30;99.90
6256;DHT22;3161;48.794;9.784;2023-11-21T02:14:13;9.30;99.90
6256;DHT22;3161;48.794;9.784;2023-11-21T02:16:41;9.30;99.90
6256;DHT22;3161;48.794;9.784;2023-11-21T02:19:11;9.30;99.90
6256;DHT22;3161;48.794;9.784;2023-11-21T02:21:40;9.40;99.90
6256;DHT22;3161;48.794;9.784;2023-11-21T02:24:08;9.40;99.90
6256;DHT22;3161;48.794;9.784;2023-11-21T02:26:36;9.30;99.90
6256;DHT22;3161;48.794;9.784;2023-11-21T02:29:04;9.30;99.90
6256;DHT22;3161;48.794;9.784;2023-11-21T02:31:31;9.30;99.90
6256;DHT22;3161;48.794;9.784;2023-11-21T02:33:59;9.30;99.90
6256;DHT22;3161;48.794;9.784;2023-11-21T02:36:27;9.40;99.90
6256;DHT22;3161;48.794;9.784;2023-11-21T02:38:55;9.30;99.90
6256;DHT22;3161;48.794;9.784;2023-11-21T02:41:22;9.30;99.90
6256;DHT22;3161;48.794;9.784;2023-11-21T02:43:50;9.40;99.90
6256;DHT22;3161;48.794;9.784;2023-11-21T02:46:17;9.40;99.90
6256;DHT22;3161;48.794;9.784;2023-11-21T02:48:45;9.40;99.90
6256;DHT22;3161;48.794;9.784;2023-11-21T02:51:12;9.40;99.90
6256;DHT22;3161;48.794;9.784;2023-11-21T02:53:40;9.40;99.90
6256;DHT22;3161;48.794;9.784;2023-11-21T02:56:08;9.40;99.90
6256;DHT22;3161;48.794;9.784;2023-11-21T02:58:35;9.40;99.90
6256;DHT22;3161;48.794;9.784;2023-11-21T03:01:03;9.40;99.90
6256;DHT22;3161;48.794;9.784;2023-11-21T03:03:32;9.40;99.90
6256;DHT22;3161;48.794;9.784;2023-11-21T03:05:59;9.40;99.90
6256;DHT22;3161;48.794;9.784;2023-11-21T03:08:27;9.40;99.90
6256;DHT22;3161;48.794;9.784;2023-11-21T03:10:54;9.40;99.90
6256;DHT22;3161;48.794;9.784;2023-11-21T03:13:22;9.30;99.90
6256;DHT22;3161;48.794;9.784;2023-11-21T03:15:50;9.30;99.90
6256;DHT22;3161;48.794;9.784;2023-11-21T03:18:17;9.30;99.90
6256;DHT22;3161;48.794;9.784;2023-11-21T03:20:45;9.30;99.90
6256;DHT22;3161;48.794;9.784;2023-11-21T03:23:15;9.30;99.90
6256;DHT22;3161;48.794;9.784;2023-11-21T03:25:43;9.30;99.90
6256;DHT22;3161;48.794;9.784;2023-11-21T03:28:11;9.30;99.90
6256;DHT22;3161;48.794;9.784;2023-11-21T03:30:39;9.30;99.90
6256;DHT22;3161;48.794;9.784;2023-11-21T03:33:07;9.30;99.90
6256;DHT22;3161;48.794;9.784;2023-11-21T03:35:34;9.30;99.90
6256;DHT22;3161;48.794;9.784;2023-11-21T03:38:03;9.30;99.90
6256;DHT22;3161;48.794;9.784;2023-11-21T03:40:31;9.30;99.90
6256;DHT22;3161;48.794;9.784;2023-11-21T03:42:58;9.20;99.90
6256;DHT22;3161;48.794;9.784;2023-11-21T03:45:26;9.30;99.90
6256;DHT22;3161;48.794;9.784;2023-11-21T03:47:53;9.30;99.90
6256;DHT22;3161;48.794;9.784;2023-11-21T03:50:21;9.30;99.90
6256;DHT22;3161;48.794;9.784;2023-11-21T03:52:48;9.30;99.90
6256;DHT22;3161;48.794;9.784;2023-11-21T03:55:16;9.30;99.90
6256;DHT22;3161;48.794;9.784;2023-11-21T03:57:43;9.30;99.90
6256;DHT22;3161;48.794;9.784;2023-11-21T04:00:11;9.30;99.90
6256;DHT22;3161;48.794;9.784;2023-11-21T04:02:39;9.30;99.90
6256;DHT22;3161;48.794;9.784;2023-11-21T04:05:07;9.20;99.90
6256;DHT22;3161;48.794;9.784;2023-11-21T04:07:36;9.20;99.90
6256;DHT22;3161;48.794;9.784;2023-11-21T04:10:06;9.20;99.90
6256;DHT22;3161;48.794;9.784;2023-11-21T04:12:36;9.20;99.90
6256;DHT22;3161;48.794;9.784;2023-11-21T04:15:04;9.20;99.90
6256;DHT22;3161;48.794;9.784;2023-11-21T04:17:31;9.20;99.90
6256;DHT22;3161;48.794;9.784;2023-11-21T04:19:59;9.20;99.90
6256;DHT22;3161;48.794;9.784;2023-11-21T04:22:26;9.20;99.90
6256;DHT22;3161;48.794;9.784;2023-11-21T04:24:54;9.20;99.90
6256;DHT22;3161;48.794;9.784;2023-11-21T04:27:22;9.20;99.90
6256;DHT22;3161;48.794;9.784;2023-11-21T04:29:49;9.30;99.90
6256;DHT22;3161;48.794;9.784;2023-11-21T04:32:17;9.30;99.90
6256;DHT22;3161;48.794;9.784;2023-11-21T04:34:44;9.30;99.90
6256;DHT22;3161;48.794;9.784;2023-11-21T04:37:12;9.30;99.90
6256;DHT22;3161;48.794;9.784;2023-11-21T04:39:40;9.30;99.90
6256;DHT22;3161;48.794;9.784;2023-11-21T04:42:07;9.30;99.90
6256;DHT22;3161;48.794;9.784;2023-11-21T04:44:34;9.30;99.90
6256;DHT22;3161;48.794;9.784;2023-11-21T04:47:02;9.30;99.90
6256;DHT22;3161;48.794;9.784;2023-11-21T04:49:31;9.30;99.90
6256;DHT22;3161;48.794;9.784;2023-11-21T04:51:58;9.30;99.90
6256;DHT22;3161;48.794;9.784;2023-11-21T04:54:26;9.30;99.90
6256;DHT22;3161;48.794;9.784;2023-11-21T04:56:54;9.30;99.90
6256;DHT22;3161;48.794;9.784;2023-11-21T04:59:21;9.20;99.90
6256;DHT22;3161;48.794;9.784;2023-11-21T05:01:51;9.30;99.90
6256;DHT22;3161;48.794;9.784;2023-11-21T05:04:18;9.30;99.90
6256;DHT22;3161;48.794;9.784;2023-11-21T05:06:46;9.30;99.90
6256;DHT22;3161;48.794;9.784;2023-11-21T05:09:14;9.30;99.90
6256;DHT22;3161;48.794;9.784;2023-11-21T05:11:42;9.30;99.90
6256;DHT22;3161;48.794;9.784;2023-11-21T05:14:09;9.30;99.90
6256;DHT22;3161;48.794;9.784;2023-11-21T05:16:38;9.30;99.90
6256;DHT22;3161;48.794;9.784;2023-11-21T05:19:05;9.30;99.90
6256;DHT22;3161;48.794;9.784;2023-11-21T05:21:33;9.30;99.90
6256;DHT22;3161;48.794;9.784;2023-11-21T05:24:02;9.30;99.90
6256;DHT22;3161;48.794;9.784;2023-11-21T05:26:30;9.30;99.90
6256;DHT22;3161;48.794;9.784;2023-11-21T05:28:58;9.30;99.90
6256;DHT22;3161;48.794;9.784;2023-11-21T05:31:25;9.30;99.90
6256;DHT22;3161;48.794;9.784;2023-11-21T05:33:53;9.30;99.90
6256;DHT22;3161;48.794;9.784;2023-11-21T05:36:21;9.30;99.90
6256;DHT22;3161;48.794;9.784;2023-11-21T05:38:48;9.30;99.90
6256;DHT22;3161;48.794;9.784;2023-11-21T05:41:16;9.30;99.90
6256;DHT22;3161;48.794;9.784;2023-11-21T05:43:43;9.30;99.90
6256;DHT22;3161;48.794;9.784;2023-11-21T05:46:11;9.30;99.90
6256;DHT22;3161;48.794;9.784;2023-11-21T05:48:39;9.30;99.90
6256;DHT22;3161;48.794;9.784;2023-11-21T05:51:07;9.30;99.90
6256;DHT22;3161;48.794;9.784;2023-11-21T05:53:39;9.30;99.90
6256;DHT22;3161;48.794;9.784;2023-11-21T05:56:07;9.30;99.90
6256;DHT22;3161;48.794;9.784;2023-11-21T05:58:35;9.20;99.90
6256;DHT22;3161;48.794;9.784;2023-11-21T06:01:05;9.20;99.90
6256;DHT22;3161;48.794;9.784;2023-11-21T06:03:34;9.20;99.90
6256;DHT22;3161;48.794;9.784;2023-11-21T06:06:02;9.20;99.90
6256;DHT22;3161;48.794;9.784;2023-11-21T06:08:31;9.20;99.90
6256;DHT22;3161;48.794;9.784;2023-11-21T06:10:58;9.20;99.90
6256;DHT22;3161;48.794;9.784;2023-11-21T06:13:26;9.20;99.90
6256;DHT22;3161;48.794;9.784;2023-11-21T06:15:54;9.20;99.90
6256;DHT22;3161;48.794;9.784;2023-11-21T06:18:21;9.20;99.90
6256;DHT22;3161;48.794;9.784;2023-11-21T06:20:49;9.20;99.90
6256;DHT22;3161;48.794;9.784;2023-11-21T06:23:16;9.30;99.90
6256;DHT22;3161;48.794;9.784;2023-11-21T06:25:44;9.20;99.90
6256;DHT22;3161;48.794;9.784;2023-11-21T06:28:11;9.20;99.90
6256;DHT22;3161;48.794;9.784;2023-11-21T06:30:39;9.30;99.90
6256;DHT22;3161;48.794;9.784;2023-11-21T06:33:06;9.20;99.90
6256;DHT22;3161;48.794;9.784;2023-11-21T06:35:34;9.20;99.90
6256;DHT22;3161;48.794;9.784;2023-11-21T06:38:02;9.20;99.90
6256;DHT22;3161;48.794;9.784;2023-11-21T06:40:29;9.20;99.90
6256;DHT22;3161;48.794;9.784;2023-11-21T06:42:57;9.20;99.90
6256;DHT22;3161;48.794;9.784;2023-11-21T06:45:25;9.20;99.90
6256;DHT22;3161;48.794;9.784;2023-11-21T06:47:53;9.30;99.90
6256;DHT22;3161;48.794;9.784;2023-11-21T06:50:21;9.30;99.90
6256;DHT22;3161;48.794;9.784;2023-11-21T06:52:48;9.30;99.90
6256;DHT22;3161;48.794;9.784;2023-11-21T06:55:16;9.30;99.90
6256;DHT22;3161;48.794;9.784;2023-11-21T06:57:43;9.30;99.90
6256;DHT22;3161;48.794;9.784;2023-11-21T07:00:12;9.30;99.90
6256;DHT22;3161;48.794;9.784;2023-11-21T07:02:40;9.30;99.90
6256;DHT22;3161;48.794;9.784;2023-11-21T07:05:08;9.30;99.90
6256;DHT22;3161;48.794;9.784;2023-11-21T07:07:35;9.30;99.90
6256;DHT22;3161;48.794;9.784;2023-11-21T07:10:04;9.30;99.90
6256;DHT22;3161;48.794;9.784;2023-11-21T07:12:32;9.30;99.90
6256;DHT22;3161;48.794;9.784;2023-11-21T07:15:00;9.30;99.90
6256;DHT22;3161;48.794;9.784;2023-11-21T07:17:29;9.30;99.90
6256;DHT22;3161;48.794;9.784;2023-11-21T07:19:57;9.30;99.90
6256;DHT22;3161;48.794;9.784;2023-11-21T07:22:25;9.30;99.90
6256;DHT22;3161;48.794;9.784;2023-11-21T07:24:53;9.30;99.90
6256;DHT22;3161;48.794;9.784;2023-11-21T07:27:20;9.40;99.90
6256;DHT22;3161;48.794;9.784;2023-11-21T07:29:48;9.40;99.90
6256;DHT22;3161;48.794;9.784;2023-11-21T07:32:15;9.40;99.90
6256;DHT22;3161;48.794;9.784;2023-11-21T07:34:43;9.50;99.90
6256;DHT22;3161;48.794;9.784;2023-11-21T07:37:11;9.40;99.90
6256;DHT22;3161;48.794;9.784;2023-11-21T07:39:39;9.50;99.90
6256;DHT22;3161;48.794;9.784;2023-11-21T07:42:08;9.50;99.90
6256;DHT22;3161;48.794;9.784;2023-11-21T07:44:37;9.50;99.90
6256;DHT22;3161;48.794;9.784;2023-11-21T07:47:05;9.50;99.90
6256;DHT22;3161;48.794;9.784;2023-11-21T07:49:32;9.50;99.90
6256;DHT22;3161;48.794;9.784;2023-11-21T07:52:00;9.50;99.90
6256;DHT22;3161;48.794;9.784;2023-11-21T07:54:27;9.50;99.90
6256;DHT22;3161;48.794;9.784;2023-11-21T07:56:54;9.50;99.90
6256;DHT22;3161;48.794;9.784;2023-11-21T07:59:22;9.50;99.90
6256;DHT22;3161;48.794;9.784;2023-11-21T08:01:49;9.50;99.90
6256;DHT22;3161;48.794;9.784;2023-11-21T08:04:17;9.60;99.90
6256;DHT22;3161;48.794;9.784;2023-11-21T08:06:45;9.50;99.90
6256;DHT22;3161;48.794;9.784;2023-11-21T08:09:12;9.60;99.90
6256;DHT22;3161;48.794;9.784;2023-11-21T08:11:40;9.60;99.90
6256;DHT22;3161;48.794;9.784;2023-11-21T08:14:07;9.60;99.90
6256;DHT22;3161;48.794;9.784;2023-11-21T08:16:35;9.70;99.90
6256;DHT22;3161;48.794;9.784;2023-11-21T08:19:02;9.70;99.90
6256;DHT22;3161;48.794;9.784;2023-11-21T08:21:30;9.70;99.90
6256;DHT22;3161;48.794;9.784;2023-11-21T08:23:57;9.80;99.90
6256;DHT22;3161;48.794;9.784;2023-11-21T08:26:25;9.80;99.90
6256;DHT22;3161;48.794;9.784;2023-11-21T08:28:52;9.80;99.90
6256;DHT22;3161;48.794;9.784;2023-11-21T08:31:26;9.80;99.90
6256;DHT22;3161;48.794;9.784;2023-11-21T08:33:54;9.80;99.90
6256;DHT22;3161;48.794;9.784;2023-11-21T08:36:23;9.90;99.90
6256;DHT22;3161;48.794;9.784;2023-11-21T08:38:51;9.80;99.90
6256;DHT22;3161;48.794;9.784;2023-11-21T08:41:19;9.80;99.90
6256;DHT22;3161;48.794;9.784;2023-11-21T08:43:50;9.90;99.90
6256;DHT22;3161;48.794;9.784;2023-11-21T08:46:18;9.90;99.90
6256;DHT22;3161;48.794;9.784;2023-11-21T08:48:46;9.90;99.90
6256;DHT22;3161;48.794;9.784;2023-11-21T08:51:13;9.90;99.90
6256;DHT22;3161;48.794;9.784;2023-11-21T08:53:41;9.90;99.90
6256;DHT22;3161;48.794;9.784;2023-11-21T08:56:13;9.90;99.90
6256;DHT22;3161;48.794;9.784;2023-11-21T08:58:41;9.90;99.90
6256;DHT22;3161;48.794;9.784;2023-11-21T09:01:09;9.90;99.90
6256;DHT22;3161;48.794;9.784;2023-11-21T09:03:38;9.90;99.90
6256;DHT22;3161;48.794;9.784;2023-11-21T09:06:06;9.90;99.90
6256;DHT22;3161;48.794;9.784;2023-11-21T09:08:36;9.90;99.90
6256;DHT22;3161;48.794;9.784;2023-11-21T09:11:04;10.00;99.90
6256;DHT22;3161;48.794;9.784;2023-11-21T09:13:32;10.00;99.90
6256;DHT22;3161;48.794;9.784;2023-11-21T09:15:59;10.00;99.90
6256;DHT22;3161;48.794;9.784;2023-11-21T09:18:27;10.00;99.90
6256;DHT22;3161;48.794;9.784;2023-11-21T09:20:55;10.00;99.90
6256;DHT22;3161;48.794;9.784;2023-11-21T09:23:22;9.80;99.90
6256;DHT22;3161;48.794;9.784;2023-11-21T09:25:50;10.10;99.90
6256;DHT22;3161;48.794;9.784;2023-11-21T09:28:18;10.20;99.90
6256;DHT22;3161;48.794;9.784;2023-11-21T09:30:46;10.20;99.90
6256;DHT22;3161;48.794;9.784;2023-11-21T09:33:15;10.30;99.90
6256;DHT22;3161;48.794;9.784;2023-11-21T09:35:42;10.30;99.90
6256;DHT22;3161;48.794;9.784;2023-11-21T09:38:10;10.30;99.90
6256;DHT22;3161;48.794;9.784;2023-11-21T09:40:38;10.20;99.90
6256;DHT22;3161;48.794;9.784;2023-11-21T09:43:08;10.30;99.90
6256;DHT22;3161;48.794;9.784;2023-11-21T09:45:39;10.20;99.90
6256;DHT22;3161;48.794;9.784;2023-11-21T09:48:07;10.20;99.90
6256;DHT22;3161;48.794;9.784;2023-11-21T09:50:39;10.20;99.90
6256;DHT22;3161;48.794;9.784;2023-11-21T09:53:13;10.30;99.90
6256;DHT22;3161;48.794;9.784;2023-11-21T09:55:43;10.30;99.90
6256;DHT22;3161;48.794;9.784;2023-11-21T09:58:12;10.40;99.90
6256;DHT22;3161;48.794;9.784;2023-11-21T10:00:48;10.40;99.90
6256;DHT22;3161;48.794;9.784;2023-11-21T10:03:16;10.50;99.90
6256;DHT22;3161;48.794;9.784;2023-11-21T10:05:44;10.40;99.90
6256;DHT22;3161;48.794;9.784;2023-11-21T10:08:13;10.50;99.90
6256;DHT22;3161;48.794;9.784;2023-11-21T10:10:43;10.50;99.90
6256;DHT22;3161;48.794;9.784;2023-11-21T10:13:18;10.50;99.90
6256;DHT22;3161;48.794;9.784;2023-11-21T10:15:51;10.50;99.90
6256;DHT22;3161;48.794;9.784;2023-11-21T10:18:19;10.50;99.90
6256;DHT22;3161;48.794;9.784;2023-11-21T10:20:49;10.60;99.90
6256;DHT22;3161;48.794;9.784;2023-11-21T10:23:21;10.60;99.90
6256;DHT22;3161;48.794;9.784;2023-11-21T10:25:49;10.70;99.90
6256;DHT22;3161;48.794;9.784;2023-11-21T10:28:18;10.70;99.90
6256;DHT22;3161;48.794;9.784;2023-11-21T10:30:47;10.70;99.90
6256;DHT22;3161;48.794;9.784;2023-11-21T10:33:14;10.80;99.90
6256;DHT22;3161;48.794;9.784;2023-11-21T10:35:44;10.80;99.90
6256;DHT22;3161;48.794;9.784;2023-11-21T10:38:14;10.90;99.90
6256;DHT22;3161;48.794;9.784;2023-11-21T10:40:41;10.90;99.90
6256;DHT22;3161;48.794;9.784;2023-11-21T10:43:11;10.90;99.90
6256;DHT22;3161;48.794;9.784;2023-11-21T10:45:40;10.90;99.90
6256;DHT22;3161;48.794;9.784;2023-11-21T10:48:10;10.90;99.90
6256;DHT22;3161;48.794;9.784;2023-11-21T10:50:38;10.90;99.90
6256;DHT22;3161;48.794;9.784;2023-11-21T10:53:06;10.90;99.90
6256;DHT22;3161;48.794;9.784;2023-11-21T10:55:34;10.90;99.90
6256;DHT22;3161;48.794;9.784;2023-11-21T10:58:04;11.00;99.90
6256;DHT22;3161;48.794;9.784;2023-11-21T11:00:33;11.00;99.90
6256;DHT22;3161;48.794;9.784;2023-11-21T11:03:01;11.00;99.90
6256;DHT22;3161;48.794;9.784;2023-11-21T11:05:30;11.00;99.90
6256;DHT22;3161;48.794;9.784;2023-11-21T11:08:04;11.00;99.90
6256;DHT22;3161;48.794;9.784;2023-11-21T11:10:32;11.00;99.90
6256;DHT22;3161;48.794;9.784;2023-11-21T11:12:59;10.90;99.90
6256;DHT22;3161;48.794;9.784;2023-11-21T11:15:28;10.90;99.90
6256;DHT22;3161;48.794;9.784;2023-11-21T11:17:56;10.90;99.90
6256;DHT22;3161;48.794;9.784;2023-11-21T11:20:34;10.90;99.90
6256;DHT22;3161;48.794;9.784;2023-11-21T11:32:00;10.80;99.90
6256;DHT22;3161;48.794;9.784;2023-11-21T11:34:29;10.90;99.90
6256;DHT22;3161;48.794;9.784;2023-11-21T11:37:03;10.80;99.90
6256;DHT22;3161;48.794;9.784;2023-11-21T11:39:40;10.80;99.90
6256;DHT22;3161;48.794;9.784;2023-11-21T11:42:12;10.80;99.90
6256;DHT22;3161;48.794;9.784;2023-11-21T11:47:24;10.90;99.90
6256;DHT22;3161;48.794;9.784;2023-11-21T11:50:12;11.00;99.90
6256;DHT22;3161;48.794;9.784;2023-11-21T11:52:46;11.10;99.90
6256;DHT22;3161;48.794;9.784;2023-11-21T11:55:17;11.20;99.90
6256;DHT22;3161;48.794;9.784;2023-11-21T11:57:46;11.40;99.90
6256;DHT22;3161;48.794;9.784;2023-11-21T12:00:22;11.50;99.90
6256;DHT22;3161;48.794;9.784;2023-11-21T12:02:56;11.70;99.90
6256;DHT22;3161;48.794;9.784;2023-11-21T12:05:26;11.90;99.90
6256;DHT22;3161;48.794;9.784;2023-11-21T12:07:55;12.10;99.90
6256;DHT22;3161;48.794;9.784;2023-11-21T12:10:30;12.20;99.90
6256;DHT22;3161;48.794;9.784;2023-11-21T12:12:58;12.30;99.90
6256;DHT22;3161;48.794;9.784;2023-11-21T12:15:26;12.40;99.90
6256;DHT22;3161;48.794;9.784;2023-11-21T12:17:56;12.40;99.90
6256;DHT22;3161;48.794;9.784;2023-11-21T12:20:26;12.50;99.90
6256;DHT22;3161;48.794;9.784;2023-11-21T12:22:55;12.50;99.90
6256;DHT22;3161;48.794;9.784;2023-11-21T12:25:27;12.60;99.90
6256;DHT22;3161;48.794;9.784;2023-11-21T12:27:56;12.60;99.90
6256;DHT22;3161;48.794;9.784;2023-11-21T12:30:33;12.60;99.90
6256;DHT22;3161;48.794;9.784;2023-11-21T12:33:03;12.60;99.90
6256;DHT22;3161;48.794;9.784;2023-11-21T12:35:34;12.60;99.90
6256;DHT22;3161;48.794;9.784;2023-11-21T12:38:03;12.50;99.90
6256;DHT22;3161;48.794;9.784;2023-11-21T12:40:31;12.50;99.90
6256;DHT22;3161;48.794;9.784;2023-11-21T12:43:00;12.50;99.90
6256;DHT22;3161;48.794;9.784;2023-11-21T12:45:28;12.40;99.90
6256;DHT22;3161;48.794;9.784;2023-11-21T12:48:01;12.40;99.90
6256;DHT22;3161;48.794;9.784;2023-11-21T12:50:31;12.40;99.90
6256;DHT22;3161;48.794;9.784;2023-11-21T12:53:02;12.30;99.90
6256;DHT22;3161;48.794;9.784;2023-11-21T12:55:33;12.30;99.90
6256;DHT22;3161;48.794;9.784;2023-11-21T12:58:06;12.20;99.90
6256;DHT22;3161;48.794;9.784;2023-11-21T13:00:40;12.20;99.90
6256;DHT22;3161;48.794;9.784;2023-11-21T13:03:10;12.10;99.90
6256;DHT22;3161;48.794;9.784;2023-11-21T13:05:40;12.00;99.90
6256;DHT22;3161;48.794;9.784;2023-11-21T13:08:13;12.00;99.90
6256;DHT22;3161;48.794;9.784;2023-11-21T13:10:44;12.00;99.90
6256;DHT22;3161;48.794;9.784;2023-11-21T13:13:14;12.00;99.90
6256;DHT22;3161;48.794;9.784;2023-11-21T13:15:51;11.90;99.90
6256;DHT22;3161;48.794;9.784;2023-11-21T13:18:19;11.80;99.90
6256;DHT22;3161;48.794;9.784;2023-11-21T13:20:48;11.70;99.90
6256;DHT22;3161;48.794;9.784;2023-11-21T13:23:16;11.70;99.90
6256;DHT22;3161;48.794;9.784;2023-11-21T13:25:44;11.60;99.90
6256;DHT22;3161;48.794;9.784;2023-11-21T13:28:15;11.50;99.90
6256;DHT22;3161;48.794;9.784;2023-11-21T13:30:45;11.50;99.90
6256;DHT22;3161;48.794;9.784;2023-11-21T13:33:13;11.40;99.90
6256;DHT22;3161;48.794;9.784;2023-11-21T13:35:43;11.40;99.90
6256;DHT22;3161;48.794;9.784;2023-11-21T13:38:15;11.30;99.90
6256;DHT22;3161;48.794;9.784;2023-11-21T13:40:50;11.20;99.90
6256;DHT22;3161;48.794;9.784;2023-11-21T13:43:24;11.20;99.90
6256;DHT22;3161;48.794;9.784;2023-11-21T13:45:54;11.10;99.90
6256;DHT22;3161;48.794;9.784;2023-11-21T13:48:33;11.10;99.90
6256;DHT22;3161;48.794;9.784;2023-11-21T13:51:03;11.10;99.90
6256;DHT22;3161;48.794;9.784;2023-11-21T13:53:34;11.10;99.90
6256;DHT22;3161;48.794;9.784;2023-11-21T13:56:04;11.10;99.90
6256;DHT22;3161;48.794;9.784;2023-11-21T13:58:32;11.00;99.90
6256;DHT22;3161;48.794;9.784;2023-11-21T14:01:10;11.00;99.90
6256;DHT22;3161;48.794;9.784;2023-11-21T14:03:45;11.00;99.90
6256;DHT22;3161;48.794;9.784;2023-11-21T14:06:15;11.00;99.90
6256;DHT22;3161;48.794;9.784;2023-11-21T14:08:44;11.00;99.90
6256;DHT22;3161;48.794;9.784;2023-11-21T14:11:13;11.00;99.90
6256;DHT22;3161;48.794;9.784;2023-11-21T14:13:42;11.00;99.90
6256;DHT22;3161;48.794;9.784;2023-11-21T14:16:11;11.00;99.90
6256;DHT22;3161;48.794;9.784;2023-11-21T14:18:40;10.90;99.90
6256;DHT22;3161;48.794;9.784;2023-11-21T14:21:09;10.90;99.90
6256;DHT22;3161;48.794;9.784;2023-11-21T14:23:37;10.90;99.90
6256;DHT22;3161;48.794;9.784;2023-11-21T14:26:05;10.80;99.90
6256;DHT22;3161;48.794;9.784;2023-11-21T14:28:33;10.80;99.90
6256;DHT22;3161;48.794;9.784;2023-11-21T14:31:02;10.80;99.90
6256;DHT22;3161;48.794;9.784;2023-11-21T14:33:30;10.70;99.90
6256;DHT22;3161;48.794;9.784;2023-11-21T14:35:58;10.60;99.90
6256;DHT22;3161;48.794;9.784;2023-11-21T14:38:25;10.50;99.90
6256;DHT22;3161;48.794;9.784;2023-11-21T14:40:54;10.50;99.90
6256;DHT22;3161;48.794;9.784;2023-11-21T14:43:23;10.40;99.90
6256;DHT22;3161;48.794;9.784;2023-11-21T14:45:56;10.30;99.90
6256;DHT22;3161;48.794;9.784;2023-11-21T14:51:19;10.20;99.90
6256;DHT22;3161;48.794;9.784;2023-11-21T14:53:54;10.10;99.90
6256;DHT22;3161;48.794;9.784;2023-11-21T14:56:24;10.10;99.90
6256;DHT22;3161;48.794;9.784;2023-11-21T14:58:54;10.20;99.90
6256;DHT22;3161;48.794;9.784;2023-11-21T15:01:27;10.10;99.90
6256;DHT22;3161;48.794;9.784;2023-11-21T15:03:59;10.10;99.90
6256;DHT22;3161;48.794;9.784;2023-11-21T15:06:27;10.10;99.90
6256;DHT22;3161;48.794;9.784;2023-11-21T15:08:57;10.10;99.90
6256;DHT22;3161;48.794;9.784;2023-11-21T15:11:36;10.10;99.90
6256;DHT22;3161;48.794;9.784;2023-11-21T15:14:05;10.10;99.90
6256;DHT22;3161;48.794;9.784;2023-11-21T15:16:35;10.10;99.90
6256;DHT22;3161;48.794;9.784;2023-11-21T15:19:10;10.10;99.90
6256;DHT22;3161;48.794;9.784;2023-11-21T15:21:39;10.10;99.90
6256;DHT22;3161;48.794;9.784;2023-11-21T15:24:07;10.10;99.90
6256;DHT22;3161;48.794;9.784;2023-11-21T15:26:34;10.10;99.90
6256;DHT22;3161;48.794;9.784;2023-11-21T15:29:02;10.10;99.90
6256;DHT22;3161;48.794;9.784;2023-11-21T15:31:29;10.10;99.90
6256;DHT22;3161;48.794;9.784;2023-11-21T15:33:57;10.00;99.90
6256;DHT22;3161;48.794;9.784;2023-11-21T15:36:27;10.00;99.90
6256;DHT22;3161;48.794;9.784;2023-11-21T15:38:54;10.00;99.90
6256;DHT22;3161;48.794;9.784;2023-11-21T15:41:22;10.00;99.90
6256;DHT22;3161;48.794;9.784;2023-11-21T15:43:49;10.00;99.90
6256;DHT22;3161;48.794;9.784;2023-11-21T15:46:17;10.00;99.90
6256;DHT22;3161;48.794;9.784;2023-11-21T15:48:45;10.00;99.90
6256;DHT22;3161;48.794;9.784;2023-11-21T15:51:15;10.00;99.90
6256;DHT22;3161;48.794;9.784;2023-11-21T15:53:43;10.00;99.90
6256;DHT22;3161;48.794;9.784;2023-11-21T15:56:11;10.00;99.90
6256;DHT22;3161;48.794;9.784;2023-11-21T15:58:39;10.00;99.90
6256;DHT22;3161;48.794;9.784;2023-11-21T16:01:10;10.00;99.90
6256;DHT22;3161;48.794;9.784;2023-11-21T16:03:39;10.00;99.90
6256;DHT22;3161;48.794;9.784;2023-11-21T16:06:07;10.00;99.90
6256;DHT22;3161;48.794;9.784;2023-11-21T16:08:36;10.00;99.90
6256;DHT22;3161;48.794;9.784;2023-11-21T16:11:04;10.00;99.90
6256;DHT22;3161;48.794;9.784;2023-11-21T16:13:32;10.00;99.90
6256;DHT22;3161;48.794;9.784;2023-11-21T16:16:01;10.00;99.90
6256;DHT22;3161;48.794;9.784;2023-11-21T16:18:29;9.90;99.90
6256;DHT22;3161;48.794;9.784;2023-11-21T16:20:56;9.90;99.90
6256;DHT22;3161;48.794;9.784;2023-11-21T16:23:24;9.90;99.90
6256;DHT22;3161;48.794;9.784;2023-11-21T16:25:51;9.90;99.90
6256;DHT22;3161;48.794;9.784;2023-11-21T16:28:22;9.90;99.90
6256;DHT22;3161;48.794;9.784;2023-11-21T16:30:51;9.80;99.90
6256;DHT22;3161;48.794;9.784;2023-11-21T16:33:18;9.80;99.90
6256;DHT22;3161;48.794;9.784;2023-11-21T16:35:46;9.90;99.90